createdAt,value
2018-11-28T00:00:09.759Z,79.31
2018-11-28T00:02:38.068Z,78.52
2018-11-28T00:05:09.416Z,78.68
2018-11-28T00:07:37.805Z,79.76
2018-11-28T00:10:09.155Z,79.65
2018-11-28T00:12:37.967Z,78.75
2018-11-28T00:15:07.260Z,78.90
2018-11-28T00:17:35.992Z,78.12
2018-11-28T00:20:04.512Z,78.29
2018-11-28T00:22:32.665Z,78.41
2018-11-28T00:25:00.815Z,78.16
2018-11-28T00:27:28.934Z,79.95
2018-11-28T00:29:57.080Z,80.19
2018-11-28T00:32:25.372Z,81.81
2018-11-28T00:34:53.532Z,81.69
2018-11-28T00:37:21.827Z,80.52
2018-11-28T00:39:50.014Z,79.96
2018-11-28T00:42:18.194Z,79.87
2018-11-28T00:44:46.431Z,79.67
2018-11-28T00:47:14.547Z,79.33
2018-11-28T00:49:42.721Z,79.83
2018-11-28T00:52:10.924Z,80.71
2018-11-28T00:54:39.106Z,80.23
2018-11-28T00:57:07.195Z,80.04
2018-11-28T00:59:35.342Z,80.00
2018-11-28T01:02:04.016Z,79.50
2018-11-28T01:04:32.112Z,79.92
2018-11-28T01:07:02.511Z,79.46
2018-11-28T01:09:30.764Z,80.21
2018-11-28T01:11:58.913Z,80.04
2018-11-28T01:14:27.095Z,79.56
2018-11-28T01:16:55.291Z,79.59
2018-11-28T01:19:23.443Z,79.80
2018-11-28T01:21:51.639Z,80.13
2018-11-28T01:24:19.887Z,79.33
2018-11-28T01:26:48.103Z,79.77
2018-11-28T01:29:16.304Z,79.60
2018-11-28T01:31:44.453Z,79.43
2018-11-28T01:34:12.610Z,79.80
2018-11-28T01:36:40.756Z,79.97
2018-11-28T01:39:08.923Z,80.36
2018-11-28T01:41:37.074Z,79.68
2018-11-28T01:44:05.777Z,80.41
2018-11-28T01:46:33.892Z,80.38
2018-11-28T01:49:02.023Z,80.96
2018-11-28T01:51:30.191Z,81.27
2018-11-28T01:53:58.315Z,82.26
2018-11-28T01:56:26.441Z,82.41
2018-11-28T01:58:54.629Z,83.58
2018-11-28T02:01:22.810Z,82.89
2018-11-28T02:03:51.008Z,82.97
2018-11-28T02:06:19.215Z,82.84
2018-11-28T02:08:47.345Z,83.08
2018-11-28T02:11:15.504Z,82.83
2018-11-28T02:13:43.624Z,83.73
2018-11-28T02:16:11.743Z,82.92
2018-11-28T02:18:39.975Z,82.63
2018-11-28T02:21:08.143Z,82.23
2018-11-28T02:23:36.247Z,82.57
2018-11-28T02:26:04.387Z,82.25
2018-11-28T02:28:32.489Z,82.65
2018-11-28T02:31:00.817Z,82.52
2018-11-28T02:33:28.959Z,82.67
2018-11-28T02:35:57.325Z,82.81
2018-11-28T02:38:25.502Z,82.90
2018-11-28T02:40:53.775Z,83.05
2018-11-28T02:43:21.967Z,83.40
2018-11-28T02:46:01.465Z,83.68
2018-11-28T02:48:29.577Z,83.12
2018-11-28T02:50:57.753Z,83.84
2018-11-28T02:53:25.903Z,84.25
2018-11-28T02:55:54.039Z,84.18
2018-11-28T02:58:28.927Z,85.27
2018-11-28T03:00:57.034Z,85.70
2018-11-28T03:03:25.176Z,86.61
2018-11-28T03:05:53.434Z,86.49
2018-11-28T03:08:21.693Z,87.15
2018-11-28T03:10:49.874Z,87.76
2018-11-28T03:13:18.009Z,87.76
2018-11-28T03:15:48.991Z,87.80
2018-11-28T03:18:17.787Z,87.95
2018-11-28T03:20:45.923Z,87.63
2018-11-28T03:23:14.091Z,87.62
2018-11-28T03:25:42.176Z,87.49
2018-11-28T03:28:10.355Z,88.31
2018-11-28T03:30:38.425Z,87.92
2018-11-28T03:33:06.557Z,87.41
2018-11-28T03:35:34.679Z,88.01
2018-11-28T03:38:02.981Z,88.16
2018-11-28T03:40:31.192Z,87.71
2018-11-28T03:42:59.388Z,88.06
2018-11-28T03:45:27.479Z,87.35
2018-11-28T03:47:55.710Z,87.23
2018-11-28T03:50:23.842Z,87.15
2018-11-28T03:52:52.019Z,87.45
2018-11-28T03:55:20.274Z,87.50
2018-11-28T03:57:48.648Z,87.19
2018-11-28T04:00:19.926Z,87.76
2018-11-28T04:02:48.452Z,87.78
2018-11-28T04:05:16.617Z,88.74
2018-11-28T04:07:44.735Z,88.82
2018-11-28T04:10:13.891Z,89.08
2018-11-28T04:12:42.751Z,89.76
2018-11-28T04:15:14.048Z,89.67
2018-11-28T04:17:42.246Z,89.52
2018-11-28T04:20:11.983Z,89.74
2018-11-28T04:22:40.100Z,90.51
2018-11-28T04:25:09.287Z,90.24
2018-11-28T04:27:37.484Z,90.29
2018-11-28T04:30:10.174Z,90.47
2018-11-28T04:32:38.363Z,90.78
2018-11-28T04:35:08.313Z,91.26
2018-11-28T04:37:36.466Z,91.18
2018-11-28T04:40:07.876Z,91.39
2018-11-28T04:42:36.129Z,92.12
2018-11-28T04:45:04.421Z,92.55
2018-11-28T04:47:32.571Z,92.06
2018-11-28T04:50:00.684Z,92.18
2018-11-28T04:52:29.368Z,93.00
2018-11-28T04:54:57.527Z,92.33
2018-11-28T04:57:25.680Z,92.55
2018-11-28T04:59:53.865Z,92.81
2018-11-28T05:02:22.057Z,92.61
2018-11-28T05:04:50.180Z,93.32
2018-11-28T05:07:26.623Z,93.28
2018-11-28T05:09:55.728Z,93.40
2018-11-28T05:12:23.840Z,93.58
2018-11-28T05:14:52.098Z,93.81
2018-11-28T05:17:20.345Z,94.14
2018-11-28T05:19:48.655Z,94.08
2018-11-28T05:22:16.821Z,93.69
2018-11-28T05:24:45.161Z,94.06
2018-11-28T05:27:13.292Z,93.84
2018-11-28T05:32:15.854Z,94.18
2018-11-28T05:34:44.040Z,94.46
2018-11-28T05:37:12.223Z,94.36
2018-11-28T05:39:40.355Z,94.00
2018-11-28T05:42:08.611Z,93.68
2018-11-28T05:44:36.893Z,94.95
2018-11-28T05:47:05.143Z,94.98
2018-11-28T05:49:33.444Z,94.76
2018-11-28T05:52:01.580Z,95.28
2018-11-28T05:54:29.704Z,95.25
2018-11-28T05:56:57.943Z,95.30
2018-11-28T05:59:27.478Z,94.96
2018-11-28T06:01:54.337Z,95.42
2018-11-28T06:04:22.584Z,95.49
2018-11-28T06:06:50.965Z,95.49
2018-11-28T06:09:19.145Z,95.47
2018-11-28T06:11:47.311Z,95.37
2018-11-28T06:14:15.574Z,95.28
2018-11-28T06:16:43.735Z,95.62
2018-11-28T06:19:11.969Z,95.31
2018-11-28T06:21:40.089Z,95.26
2018-11-28T06:24:08.326Z,95.34
2018-11-28T06:26:36.599Z,94.78
2018-11-28T06:29:04.745Z,94.73
2018-11-28T06:31:32.841Z,94.51
2018-11-28T06:34:01.034Z,94.94
2018-11-28T06:36:29.229Z,95.27
2018-11-28T06:38:57.333Z,94.89
2018-11-28T06:41:25.525Z,94.98
2018-11-28T06:43:53.693Z,94.70
2018-11-28T06:46:21.956Z,94.93
2018-11-28T06:48:50.117Z,94.89
2018-11-28T06:51:18.393Z,94.30
2018-11-28T06:53:47.226Z,93.82
2018-11-28T06:56:14.777Z,94.38
2018-11-28T06:58:42.983Z,94.23
2018-11-28T07:01:11.111Z,94.55
2018-11-28T07:03:39.373Z,93.49
2018-11-28T07:06:08.482Z,93.72
2018-11-28T07:08:36.639Z,93.91
2018-11-28T07:11:04.872Z,93.52
2018-11-28T07:13:33.007Z,93.72
2018-11-28T07:16:01.333Z,93.42
2018-11-28T07:18:40.946Z,93.14
2018-11-28T07:21:09.151Z,93.10
2018-11-28T07:23:37.419Z,92.82
2018-11-28T07:26:05.804Z,92.73
2018-11-28T07:28:33.971Z,92.28
2018-11-28T07:31:02.121Z,92.80
2018-11-28T07:33:30.324Z,92.05
2018-11-28T07:35:58.513Z,92.48
2018-11-28T07:38:26.663Z,92.60
2018-11-28T07:40:54.953Z,92.56
2018-11-28T07:43:23.153Z,92.51
2018-11-28T07:45:52.240Z,92.15
2018-11-28T07:48:20.464Z,92.24
2018-11-28T07:50:48.597Z,92.02
2018-11-28T07:53:16.725Z,91.82
2018-11-28T07:55:45.075Z,91.69
2018-11-28T07:58:13.259Z,91.42
2018-11-28T08:00:41.388Z,91.05
2018-11-28T08:03:09.982Z,90.42
2018-11-28T08:05:38.875Z,90.31
2018-11-28T08:08:08.949Z,90.71
2018-11-28T08:10:37.399Z,89.79
2018-11-28T08:13:06.130Z,89.00
2018-11-28T08:15:34.254Z,88.33
2018-11-28T08:18:02.572Z,87.88
2018-11-28T08:20:30.773Z,88.35
2018-11-28T08:22:58.985Z,87.65
2018-11-28T08:25:28.013Z,86.94
2018-11-28T08:27:55.453Z,86.15
2018-11-28T08:30:24.721Z,85.80
2018-11-28T08:32:53.439Z,85.08
2018-11-28T08:35:21.593Z,85.53
2018-11-28T08:37:50.313Z,84.29
2018-11-28T08:40:23.459Z,84.29
2018-11-28T08:42:51.865Z,82.87
2018-11-28T08:45:21.017Z,82.35
2018-11-28T08:47:50.151Z,81.83
2018-11-28T08:50:23.623Z,80.95
2018-11-28T08:52:51.823Z,80.02
2018-11-28T08:55:19.952Z,78.86
2018-11-28T08:57:48.151Z,78.81
2018-11-28T09:00:17.366Z,78.53
2018-11-28T09:02:46.478Z,77.55
2018-11-28T09:05:14.999Z,78.59
2018-11-28T09:07:43.089Z,78.16
2018-11-28T09:10:13.123Z,77.67
2018-11-28T09:12:43.197Z,77.26
2018-11-28T09:15:13.772Z,77.27
2018-11-28T09:17:41.870Z,77.05
2018-11-28T09:20:12.192Z,76.37
2018-11-28T09:22:40.365Z,76.60
2018-11-28T09:25:10.971Z,76.31
2018-11-28T09:27:39.184Z,75.77
2018-11-28T09:30:12.811Z,75.70
2018-11-28T09:32:41.006Z,76.08
2018-11-28T09:35:10.084Z,75.51
2018-11-28T09:37:38.296Z,74.23
2018-11-28T09:40:11.716Z,74.39
2018-11-28T09:42:39.897Z,73.22
2018-11-28T09:45:09.949Z,73.21
2018-11-28T09:47:38.204Z,73.43
2018-11-28T09:50:12.208Z,72.30
2018-11-28T09:52:40.490Z,71.21
2018-11-28T09:55:11.218Z,71.85
2018-11-28T09:57:39.387Z,71.08
2018-11-28T10:00:11.784Z,71.01
2018-11-28T10:02:40.025Z,71.30
2018-11-28T10:05:12.077Z,70.23
2018-11-28T10:07:40.219Z,70.13
2018-11-28T10:10:10.249Z,70.28
2018-11-28T10:12:38.438Z,69.85
2018-11-28T10:15:17.658Z,69.80
2018-11-28T10:17:46.066Z,69.88
2018-11-28T10:20:14.908Z,69.72
2018-11-28T10:22:43.334Z,69.14
2018-11-28T10:25:14.868Z,69.72
2018-11-28T10:27:44.106Z,68.74
2018-11-28T10:30:17.927Z,68.71
2018-11-28T10:32:46.147Z,68.42
2018-11-28T10:35:14.313Z,67.74
2018-11-28T10:37:42.564Z,67.58
2018-11-28T10:40:13.254Z,66.67
2018-11-28T10:42:41.404Z,65.97
2018-11-28T10:45:11.188Z,65.51
2018-11-28T10:47:39.503Z,64.01
2018-11-28T10:50:10.753Z,64.59
2018-11-28T10:52:39.462Z,64.85
2018-11-28T10:55:13.211Z,64.54
2018-11-28T10:57:41.389Z,64.80
2018-11-28T11:00:15.333Z,63.12
2018-11-28T11:02:49.120Z,63.70
2018-11-28T11:05:23.616Z,64.08
2018-11-28T11:07:57.024Z,63.59
2018-11-28T11:10:30.653Z,63.04
2018-11-28T11:13:04.238Z,64.27
2018-11-28T11:15:32.380Z,63.37
2018-11-28T11:18:02.251Z,63.61
2018-11-28T11:20:28.787Z,63.47
2018-11-28T11:22:57.350Z,63.61
2018-11-28T11:25:25.479Z,63.58
2018-11-28T11:27:53.719Z,62.42
2018-11-28T11:30:21.867Z,62.97
2018-11-28T11:32:50.116Z,62.45
2018-11-28T11:35:18.227Z,61.98
2018-11-28T11:37:46.531Z,62.30
2018-11-28T11:40:15.041Z,61.22
2018-11-28T11:42:43.181Z,61.61
2018-11-28T11:45:14.582Z,62.35
2018-11-28T11:47:42.972Z,61.17
2018-11-28T11:50:14.181Z,61.23
2018-11-28T11:52:42.354Z,61.14
2018-11-28T11:55:14.883Z,60.69
2018-11-28T11:57:43.082Z,60.64
2018-11-28T12:00:16.845Z,60.94
2018-11-28T12:03:05.965Z,60.86
2018-11-28T12:05:34.071Z,61.61
2018-11-28T12:08:02.252Z,60.70
2018-11-28T12:10:30.338Z,60.54
2018-11-28T12:12:58.656Z,60.88
2018-11-28T12:15:26.880Z,59.63
2018-11-28T12:17:55.139Z,60.09
2018-11-28T12:20:26.185Z,60.24
2018-11-28T12:22:54.307Z,59.46
2018-11-28T12:25:22.561Z,60.17
2018-11-28T12:27:51.370Z,60.25
2018-11-28T12:30:19.644Z,59.57
2018-11-28T12:32:47.922Z,60.08
2018-11-28T12:35:17.405Z,59.89
2018-11-28T12:37:45.616Z,58.95
2018-11-28T12:40:14.804Z,59.82
2018-11-28T12:42:46.341Z,60.44
2018-11-28T12:45:15.436Z,60.97
2018-11-28T12:47:44.730Z,60.57
2018-11-28T12:50:15.295Z,59.54
2018-11-28T12:52:43.450Z,59.69
2018-11-28T12:55:11.607Z,60.16
2018-11-28T12:57:39.825Z,59.92
2018-11-28T13:00:11.191Z,60.13
2018-11-28T13:02:39.371Z,59.94
2018-11-28T13:05:09.926Z,59.63
2018-11-28T13:07:38.022Z,59.29
2018-11-28T13:10:11.718Z,59.08
2018-11-28T13:12:40.280Z,59.75
2018-11-28T13:15:10.605Z,60.26
2018-11-28T13:17:38.923Z,59.10
2018-11-28T13:20:08.656Z,60.36
2018-11-28T13:22:36.932Z,59.72
2018-11-28T13:25:06.041Z,59.72
2018-11-28T13:27:34.177Z,59.86
2018-11-28T13:30:02.746Z,59.09
2018-11-28T13:32:30.946Z,59.29
2018-11-28T13:34:59.125Z,58.84
2018-11-28T13:37:27.271Z,59.07
2018-11-28T13:39:55.474Z,59.30
2018-11-28T13:42:23.651Z,59.33
2018-11-28T13:44:51.939Z,59.03
2018-11-28T13:47:20.232Z,59.47
2018-11-28T13:49:48.377Z,59.98
2018-11-28T13:52:16.526Z,60.02
2018-11-28T13:55:38.580Z,60.37
2018-11-28T13:57:12.997Z,60.58
2018-11-28T13:59:42.425Z,60.85
2018-11-28T14:02:10.414Z,61.49
2018-11-28T14:04:38.577Z,61.50
2018-11-28T14:07:07.425Z,61.26
2018-11-28T14:09:35.587Z,62.17
2018-11-28T14:12:03.760Z,62.41
2018-11-28T14:14:31.880Z,61.97
2018-11-28T14:17:00.056Z,61.91
2018-11-28T14:19:28.256Z,61.68
2018-11-28T14:21:56.495Z,62.09
2018-11-28T14:24:24.665Z,61.88
2018-11-28T14:26:52.879Z,62.55
2018-11-28T14:29:21.006Z,62.73
2018-11-28T14:31:49.143Z,62.41
2018-11-28T14:34:17.298Z,63.19
2018-11-28T14:36:45.523Z,63.06
2018-11-28T14:39:13.689Z,63.09
2018-11-28T14:41:41.920Z,63.55
2018-11-28T14:44:10.147Z,63.31
2018-11-28T14:46:38.370Z,63.00
2018-11-28T14:49:06.595Z,64.24
2018-11-28T14:51:34.780Z,63.75
2018-11-28T14:54:02.923Z,63.74
2018-11-28T14:56:31.086Z,63.43
2018-11-28T14:58:59.252Z,63.64
2018-11-28T15:01:27.441Z,63.83
2018-11-28T15:03:55.661Z,63.90
2018-11-28T15:06:34.514Z,64.33
2018-11-28T15:09:07.957Z,64.15
2018-11-28T15:11:36.193Z,64.06
2018-11-28T15:14:04.354Z,64.66
2018-11-28T15:16:32.568Z,64.74
2018-11-28T15:19:00.672Z,64.84
2018-11-28T15:21:28.912Z,64.77
2018-11-28T15:23:57.075Z,64.76
2018-11-28T15:26:25.195Z,64.47
2018-11-28T15:28:53.367Z,64.77
2018-11-28T15:31:21.542Z,64.61
2018-11-28T15:33:49.802Z,64.92
2018-11-28T15:36:17.982Z,65.36
2018-11-28T15:38:46.135Z,65.50
2018-11-28T15:41:14.337Z,65.12
2018-11-28T15:43:42.534Z,65.68
2018-11-28T15:46:14.879Z,65.76
2018-11-28T15:48:39.015Z,65.81
2018-11-28T15:51:07.271Z,66.06
2018-11-28T15:53:35.464Z,66.75
2018-11-28T15:56:03.640Z,66.54
2018-11-28T15:58:31.792Z,67.06
2018-11-28T16:00:59.957Z,67.12
2018-11-28T16:03:28.104Z,66.96
2018-11-28T16:05:56.334Z,67.12
2018-11-28T16:08:24.484Z,67.14
2018-11-28T16:10:52.818Z,66.88
2018-11-28T16:13:20.994Z,67.38
2018-11-28T16:15:56.359Z,67.85
2018-11-28T16:18:24.503Z,67.34
2018-11-28T16:20:52.719Z,67.26
2018-11-28T16:23:20.870Z,67.01
2018-11-28T16:25:48.977Z,67.38
2018-11-28T16:28:17.260Z,67.76
2018-11-28T16:30:45.460Z,67.51
2018-11-28T16:33:13.634Z,68.07
2018-11-28T16:35:41.778Z,68.18
2018-11-28T16:38:09.954Z,68.39
2018-11-28T16:40:38.222Z,68.69
2018-11-28T16:43:06.614Z,68.79
2018-11-28T16:45:35.088Z,68.77
2018-11-28T16:48:03.682Z,68.80
2018-11-28T16:50:31.946Z,69.16
2018-11-28T16:53:00.126Z,69.81
2018-11-28T16:55:28.341Z,70.02
2018-11-28T16:57:56.513Z,69.94
2018-11-28T17:00:26.995Z,70.40
2018-11-28T17:02:55.813Z,70.31
2018-11-28T17:05:24.119Z,70.89
2018-11-28T17:07:52.879Z,70.80
2018-11-28T17:10:22.397Z,70.41
2018-11-28T17:12:51.051Z,70.61
2018-11-28T17:15:19.788Z,71.14
2018-11-28T17:17:47.950Z,71.15
2018-11-28T17:20:21.110Z,70.47
2018-11-28T17:22:50.206Z,70.56
2018-11-28T17:25:24.602Z,70.65
2018-11-28T17:27:52.892Z,71.47
2018-11-28T17:30:22.483Z,71.13
2018-11-28T17:32:50.684Z,71.63
2018-11-28T17:35:18.904Z,71.88
2018-11-28T17:37:47.215Z,71.48
2018-11-28T17:40:17.226Z,71.39
2018-11-28T17:42:47.547Z,71.68
2018-11-28T17:45:16.751Z,70.97
2018-11-28T17:47:44.955Z,71.43
2018-11-28T17:50:15.503Z,71.52
2018-11-28T17:52:45.772Z,71.67
2018-11-28T17:55:15.490Z,71.57
2018-11-28T17:57:43.734Z,71.75
2018-11-28T18:00:13.205Z,72.52
2018-11-28T18:02:41.663Z,72.41
2018-11-28T18:05:10.785Z,72.39
2018-11-28T18:07:39.054Z,72.31
2018-11-28T18:10:22.649Z,73.07
2018-11-28T18:13:06.666Z,73.36
2018-11-28T18:15:34.916Z,73.70
2018-11-28T18:18:03.249Z,73.50
2018-11-28T18:20:31.476Z,73.94
2018-11-28T18:22:59.750Z,74.25
2018-11-28T18:25:29.558Z,74.08
2018-11-28T18:27:58.638Z,74.45
2018-11-28T18:30:26.926Z,74.45
2018-11-28T18:32:55.096Z,74.82
2018-11-28T18:35:23.314Z,75.58
2018-11-28T18:37:52.163Z,75.63
2018-11-28T18:40:20.397Z,75.51
2018-11-28T18:42:48.684Z,75.51
2018-11-28T18:45:22.417Z,76.23
2018-11-28T18:47:50.562Z,76.50
2018-11-28T18:50:18.826Z,76.21
2018-11-28T18:52:47.004Z,76.50
2018-11-28T18:55:16.977Z,75.96
2018-11-28T18:57:44.938Z,76.41
2018-11-28T19:00:21.422Z,76.49
2018-11-28T19:02:49.718Z,77.39
2018-11-28T19:05:18.003Z,76.95
2018-11-28T19:07:47.280Z,76.96
2018-11-28T19:10:16.641Z,77.12
2018-11-28T19:12:44.916Z,77.38
2018-11-28T19:15:15.435Z,77.73
2018-11-28T19:17:44.188Z,78.21
2018-11-28T19:20:19.893Z,78.19
2018-11-28T19:22:48.619Z,78.73
2018-11-28T19:25:17.886Z,78.82
2018-11-28T19:27:46.475Z,78.75
2018-11-28T19:30:17.219Z,78.92
2018-11-28T19:32:45.646Z,79.51
2018-11-28T19:35:13.902Z,79.48
2018-11-28T19:37:42.800Z,79.02
2018-11-28T19:40:13.559Z,79.68
2018-11-28T19:42:48.450Z,79.69
2018-11-28T19:45:16.773Z,79.95
2018-11-28T19:47:45.023Z,80.16
2018-11-28T19:50:17.506Z,80.11
2018-11-28T19:52:45.727Z,80.48
2018-11-28T19:55:14.014Z,80.55
2018-11-28T19:57:42.295Z,80.80
2018-11-28T20:00:16.019Z,80.95
2018-11-28T20:02:44.976Z,80.83
2018-11-28T20:05:13.283Z,81.27
2018-11-28T20:07:44.436Z,81.13
2018-11-28T20:12:39.701Z,81.17
2018-11-28T20:15:12.872Z,81.36
2018-11-28T20:17:42.218Z,81.16
2018-11-28T20:20:12.340Z,81.03
2018-11-28T20:22:42.271Z,80.95
2018-11-28T20:27:37.506Z,81.80
2018-11-28T20:30:13.196Z,82.08
2018-11-28T20:32:41.514Z,81.83
2018-11-28T20:35:11.726Z,82.01
2018-11-28T20:37:40.654Z,82.21
2018-11-28T20:40:14.638Z,82.00
2018-11-28T20:42:45.416Z,81.78
2018-11-28T20:45:13.902Z,82.18
2018-11-28T20:47:43.103Z,81.52
2018-11-28T20:52:42.481Z,82.78
2018-11-28T20:55:11.285Z,82.50
2018-11-28T20:57:39.567Z,82.57
2018-11-28T21:00:12.408Z,82.35
2018-11-28T21:02:41.220Z,82.14
2018-11-28T21:05:10.137Z,82.18
2018-11-28T21:07:38.377Z,82.31
2018-11-28T21:10:14.789Z,82.03
2018-11-28T21:12:43.042Z,82.99
2018-11-28T21:15:12.471Z,82.94
2018-11-28T21:17:40.773Z,82.70
2018-11-28T21:20:13.668Z,83.26
2018-11-28T21:22:42.223Z,82.88
2018-11-28T21:25:11.861Z,82.65
2018-11-28T21:27:40.186Z,83.01
2018-11-28T21:30:16.689Z,83.14
2018-11-28T21:32:45.162Z,83.33
2018-11-28T21:35:15.656Z,82.77
2018-11-28T21:37:43.938Z,82.90
2018-11-28T21:40:12.582Z,82.79
2018-11-28T21:42:40.928Z,82.92
2018-11-28T21:45:14.602Z,82.33
2018-11-28T21:47:43.426Z,81.91
2018-11-28T21:50:13.699Z,82.22
2018-11-28T21:52:42.132Z,82.01
2018-11-28T21:55:16.081Z,81.32
2018-11-28T21:57:44.463Z,81.26
2018-11-28T22:00:16.907Z,80.62
2018-11-28T22:02:45.133Z,81.43
2018-11-28T22:05:14.175Z,80.80
2018-11-28T22:07:42.365Z,81.11
2018-11-28T22:10:15.731Z,80.82
2018-11-28T22:12:43.949Z,80.81
2018-11-28T22:15:13.119Z,80.68
2018-11-28T22:17:43.612Z,80.64
2018-11-28T22:20:12.579Z,80.66
2018-11-28T22:22:40.769Z,80.36
2018-11-28T22:25:18.745Z,80.95
2018-11-28T22:27:47.073Z,80.88
2018-11-28T22:30:16.392Z,81.18
2018-11-28T22:32:44.621Z,80.47
2018-11-28T22:35:12.873Z,80.33
2018-11-28T22:37:41.047Z,81.21
2018-11-28T22:40:15.607Z,81.27
2018-11-28T22:42:43.743Z,81.77
2018-11-28T22:45:15.267Z,81.47
2018-11-28T22:47:43.453Z,81.70
2018-11-28T22:50:12.649Z,81.60
2018-11-28T22:52:40.879Z,81.56
2018-11-28T22:55:12.057Z,81.30
2018-11-28T22:57:40.209Z,81.30
2018-11-28T23:00:11.307Z,81.41
2018-11-28T23:02:58.147Z,82.12
2018-11-28T23:05:28.227Z,82.18
2018-11-28T23:07:57.388Z,82.44
2018-11-28T23:10:25.712Z,82.56
2018-11-28T23:12:53.860Z,82.60
2018-11-28T23:15:22.034Z,82.00
2018-11-28T23:17:54.872Z,82.47
2018-11-28T23:20:18.413Z,82.06
2018-11-28T23:22:46.557Z,81.87
2018-11-28T23:25:14.770Z,82.97
2018-11-28T23:27:42.990Z,82.89
2018-11-28T23:30:12.675Z,83.17
2018-11-28T23:32:40.923Z,83.21
2018-11-28T23:35:10.158Z,83.24
2018-11-28T23:37:38.732Z,83.68
2018-11-28T23:40:09.795Z,83.69
2018-11-28T23:42:38.051Z,84.16
2018-11-28T23:45:07.891Z,83.29
2018-11-28T23:47:36.047Z,83.28
2018-11-28T23:50:04.746Z,83.96
2018-11-28T23:52:33.030Z,83.78
2018-11-28T23:55:01.190Z,83.95
2018-11-28T23:57:29.359Z,83.74
2018-11-28T23:59:57.494Z,83.47
